createdAt,value
2016-08-30T00:00:48.958Z,13.96
2016-08-30T00:01:45.655Z,13.96
2016-08-30T00:02:47.695Z,14.03
2016-08-30T00:03:47.069Z,13.92
2016-08-30T00:04:46.762Z,13.91
2016-08-30T00:05:46.747Z,13.88
2016-08-30T00:06:45.188Z,13.91
2016-08-30T00:08:00.104Z,13.84
2016-08-30T00:08:45.628Z,13.85
2016-08-30T00:09:45.638Z,13.87
2016-08-30T00:10:45.194Z,13.79
2016-08-30T00:11:45.167Z,13.77
2016-08-30T00:14:45.156Z,13.6
2016-08-30T00:15:45.754Z,13.57
2016-08-30T00:16:46.095Z,13.63
2016-08-30T00:17:45.989Z,13.54
2016-08-30T00:18:45.148Z,13.52
2016-08-30T00:19:45.345Z,13.57
2016-08-30T00:20:45.177Z,13.59
2016-08-30T00:21:45.133Z,13.51
2016-08-30T00:22:45.135Z,13.54
2016-08-30T00:23:45.112Z,13.55
2016-08-30T00:24:45.110Z,13.52
2016-08-30T00:25:45.108Z,13.41
2016-08-30T00:26:45.119Z,13.42
2016-08-30T00:27:45.101Z,13.41
2016-08-30T00:28:45.117Z,13.38
2016-08-30T00:29:45.090Z,13.46
2016-08-30T00:30:45.096Z,13.39
2016-08-30T00:31:45.085Z,13.41
2016-08-30T00:32:45.077Z,13.38
2016-08-30T00:33:45.072Z,13.33
2016-08-30T00:34:45.091Z,13.46
2016-08-30T00:35:46.182Z,13.41
2016-08-30T00:36:45.768Z,13.41
2016-08-30T00:37:45.057Z,13.42
2016-08-30T00:38:45.047Z,13.42
2016-08-30T00:39:45.045Z,13.33
2016-08-30T00:40:45.051Z,13.44
2016-08-30T00:41:45.142Z,13.38
2016-08-30T00:42:45.060Z,13.42
2016-08-30T00:43:45.039Z,13.38
2016-08-30T00:44:45.050Z,13.44
2016-08-30T00:45:45.022Z,13.33
2016-08-30T00:46:45.031Z,13.38
2016-08-30T00:47:45.009Z,13.36
2016-08-30T00:48:45.014Z,13.33
2016-08-30T00:49:45.002Z,13.23
2016-08-30T00:50:45.009Z,13.22
2016-08-30T00:51:45.014Z,13.28
2016-08-30T00:52:44.995Z,13.22
2016-08-30T00:53:44.979Z,13.25
2016-08-30T00:54:45.003Z,13.25
2016-08-30T00:55:44.980Z,13.25
2016-08-30T00:56:44.985Z,13.19
2016-08-30T00:57:44.958Z,13.19
2016-08-30T00:58:44.959Z,13.19
2016-08-30T00:59:44.949Z,13.14
2016-08-30T01:00:44.968Z,13.12
2016-08-30T01:01:44.945Z,13.17
2016-08-30T01:02:44.959Z,13.11
2016-08-30T01:03:44.932Z,13.19
2016-08-30T01:04:44.933Z,13.2
2016-08-30T01:05:44.936Z,13.14
2016-08-30T01:06:44.942Z,13.1
2016-08-30T01:07:44.925Z,13.14
2016-08-30T01:08:44.910Z,13.11
2016-08-30T01:09:44.904Z,13.04
2016-08-30T01:10:44.904Z,13.03
2016-08-30T01:11:44.894Z,13
2016-08-30T01:12:44.894Z,13.01
2016-08-30T01:13:44.885Z,12.97
2016-08-30T01:14:44.911Z,12.83
2016-08-30T01:15:44.880Z,12.85
2016-08-30T01:16:45.225Z,12.85
2016-08-30T01:17:45.516Z,12.77
2016-08-30T01:18:44.874Z,12.82
2016-08-30T01:19:44.863Z,12.78
2016-08-30T01:21:47.237Z,12.7
2016-08-30T01:22:47.944Z,12.72
2016-08-30T01:23:44.982Z,12.71
2016-08-30T01:24:46.016Z,12.74
2016-08-30T01:25:46.800Z,12.68
2016-08-30T01:26:44.931Z,12.67
2016-08-30T01:27:46.077Z,12.64
2016-08-30T01:28:45.591Z,12.7
2016-08-30T01:29:45.305Z,12.64
2016-08-30T01:30:46.334Z,12.62
2016-08-30T01:31:45.796Z,12.57
2016-08-30T01:32:45.123Z,12.57
2016-08-30T01:33:44.815Z,12.56
2016-08-30T01:34:45.418Z,12.57
2016-08-30T01:35:45.800Z,12.57
2016-08-30T01:36:45.117Z,12.5
2016-08-30T01:37:44.773Z,12.52
2016-08-30T01:38:44.764Z,12.54
2016-08-30T01:39:44.804Z,12.52
2016-08-30T01:40:44.778Z,12.42
2016-08-30T01:41:44.757Z,12.46
2016-08-30T01:42:44.745Z,12.53
2016-08-30T01:43:44.746Z,12.42
2016-08-30T01:44:44.734Z,12.52
2016-08-30T01:45:44.733Z,12.46
2016-08-30T01:46:44.741Z,12.42
2016-08-30T01:47:44.722Z,12.47
2016-08-30T01:48:44.736Z,12.49
2016-08-30T01:49:44.712Z,12.46
2016-08-30T01:50:44.729Z,12.37
2016-08-30T01:51:44.707Z,12.39
2016-08-30T01:52:44.703Z,12.32
2016-08-30T01:53:44.698Z,12.34
2016-08-30T01:54:44.689Z,12.27
2016-08-30T01:55:44.684Z,12.28
2016-08-30T01:56:44.686Z,12.31
2016-08-30T01:57:44.681Z,12.27
2016-08-30T01:58:44.668Z,12.32
2016-08-30T01:59:44.665Z,12.23
2016-08-30T02:00:44.652Z,12.23
2016-08-30T02:01:44.665Z,12.21
2016-08-30T02:02:44.663Z,12.17
2016-08-30T02:03:44.638Z,12.2
2016-08-30T02:04:44.656Z,12.23
2016-08-30T02:05:44.629Z,12.19
2016-08-30T02:06:44.651Z,12.2
2016-08-30T02:07:44.621Z,12.13
2016-08-30T02:08:44.614Z,12.21
2016-08-30T02:09:44.610Z,12.21
2016-08-30T02:10:44.629Z,12.14
2016-08-30T02:11:44.601Z,12.16
2016-08-30T02:12:44.590Z,12.13
2016-08-30T02:13:44.601Z,12.21
2016-08-30T02:14:44.592Z,12.17
2016-08-30T02:15:44.578Z,12.02
2016-08-30T02:16:44.577Z,12.14
2016-08-30T02:17:44.567Z,12.05
2016-08-30T02:18:44.589Z,12.05
2016-08-30T02:19:44.556Z,12.01
2016-08-30T02:20:44.570Z,12.04
2016-08-30T02:21:44.544Z,12.05
2016-08-30T02:22:44.547Z,12.04
2016-08-30T02:23:44.539Z,12.13
2016-08-30T02:24:44.551Z,11.99
2016-08-30T02:25:44.539Z,11.95
2016-08-30T02:26:44.552Z,12.04
2016-08-30T02:27:44.514Z,11.98
2016-08-30T02:28:44.517Z,11.99
2016-08-30T02:29:44.515Z,11.94
2016-08-30T02:30:44.514Z,11.94
2016-08-30T02:31:44.501Z,11.83
2016-08-30T02:32:44.488Z,11.79
2016-08-30T02:33:44.487Z,11.94
2016-08-30T02:34:45.078Z,11.88
2016-08-30T02:35:44.584Z,11.9
2016-08-30T02:36:45.323Z,11.82
2016-08-30T02:38:44.462Z,11.85
2016-08-30T02:39:59.666Z,11.83
2016-08-30T02:40:45.766Z,11.82
2016-08-30T02:41:45.526Z,11.76
2016-08-30T02:42:45.192Z,11.76
2016-08-30T02:43:44.525Z,11.83
2016-08-30T02:44:44.775Z,11.75
2016-08-30T02:45:45.221Z,11.76
2016-08-30T02:47:44.456Z,11.72
2016-08-30T02:48:46.068Z,11.72
2016-08-30T02:49:45.721Z,11.72
2016-08-30T02:50:44.464Z,11.76
2016-08-30T02:51:44.474Z,11.75
2016-08-30T02:52:44.387Z,11.67
2016-08-30T02:53:44.371Z,11.65
2016-08-30T02:54:44.367Z,11.58
2016-08-30T02:55:44.365Z,11.52
2016-08-30T02:56:44.359Z,11.55
2016-08-30T02:57:44.353Z,11.55
2016-08-30T02:58:44.345Z,11.47
2016-08-30T02:59:44.347Z,11.47
2016-08-30T03:00:44.346Z,11.6
2016-08-30T03:01:44.341Z,11.55
2016-08-30T03:02:44.315Z,11.52
2016-08-30T03:03:44.310Z,11.52
2016-08-30T03:04:44.310Z,11.49
2016-08-30T03:05:44.305Z,11.55
2016-08-30T03:06:44.295Z,11.54
2016-08-30T03:07:44.298Z,11.54
2016-08-30T03:08:44.301Z,11.46
2016-08-30T03:09:44.275Z,11.44
2016-08-30T03:10:44.275Z,11.44
2016-08-30T03:11:44.278Z,11.46
2016-08-30T03:12:44.276Z,11.49
2016-08-30T03:13:44.259Z,11.35
2016-08-30T03:14:44.257Z,11.46
2016-08-30T03:15:44.266Z,11.35
2016-08-30T03:16:44.253Z,11.4
2016-08-30T03:17:44.249Z,11.4
2016-08-30T03:18:44.226Z,11.42
2016-08-30T03:19:44.223Z,11.32
2016-08-30T03:20:44.220Z,11.32
2016-08-30T03:21:44.236Z,11.39
2016-08-30T03:22:44.210Z,11.35
2016-08-30T03:23:44.226Z,11.28
2016-08-30T03:24:44.204Z,11.29
2016-08-30T03:25:44.182Z,11.33
2016-08-30T03:26:44.182Z,11.35
2016-08-30T03:27:44.178Z,11.25
2016-08-30T03:28:44.177Z,11.32
2016-08-30T03:29:44.165Z,11.29
2016-08-30T03:30:44.153Z,11.28
2016-08-30T03:31:44.155Z,11.35
2016-08-30T03:32:44.145Z,11.32
2016-08-30T03:33:44.140Z,11.28
2016-08-30T03:34:44.141Z,11.19
2016-08-30T03:35:44.126Z,11.32
2016-08-30T03:36:44.131Z,11.25
2016-08-30T03:37:44.110Z,11.28
2016-08-30T03:38:44.115Z,11.27
2016-08-30T03:39:44.111Z,11.27
2016-08-30T03:40:44.097Z,11.24
2016-08-30T03:41:44.095Z,11.22
2016-08-30T03:42:44.095Z,11.24
2016-08-30T03:43:44.084Z,11.27
2016-08-30T03:44:44.089Z,11.14
2016-08-30T03:45:44.093Z,11.21
2016-08-30T03:46:44.070Z,11.19
2016-08-30T03:47:44.053Z,11.07
2016-08-30T03:48:44.048Z,11.1
2016-08-30T03:49:44.058Z,11.09
2016-08-30T03:50:44.041Z,11.06
2016-08-30T03:51:44.039Z,11.1
2016-08-30T03:53:44.866Z,11.07
2016-08-30T03:54:44.793Z,11.15
2016-08-30T03:55:44.462Z,11.07
2016-08-30T03:56:44.021Z,11.14
2016-08-30T03:57:45.526Z,11.03
2016-08-30T03:58:45.457Z,11.03
2016-08-30T03:59:45.474Z,11.14
2016-08-30T04:00:43.980Z,11.07
2016-08-30T04:01:45.440Z,11.17
2016-08-30T04:02:43.965Z,11.04
2016-08-30T04:03:44.057Z,11.11
2016-08-30T04:04:45.445Z,11.1
2016-08-30T04:05:44.653Z,11.09
2016-08-30T04:07:45.420Z,11.09
2016-08-30T04:08:46.963Z,11.1
2016-08-30T04:09:43.932Z,11.04
2016-08-30T04:10:43.921Z,11.09
2016-08-30T04:11:44.112Z,11.09
2016-08-30T04:12:44.296Z,11.06
2016-08-30T04:13:43.915Z,11.09
2016-08-30T04:14:43.892Z,11.07
2016-08-30T04:15:43.892Z,11.11
2016-08-30T04:16:43.885Z,11.09
2016-08-30T04:17:43.871Z,11.15
2016-08-30T04:18:43.868Z,11.15
2016-08-30T04:19:43.865Z,11.19
2016-08-30T04:20:43.871Z,11.15
2016-08-30T04:21:43.866Z,11.24
2016-08-30T04:22:43.868Z,11.22
2016-08-30T04:23:43.838Z,11.27
2016-08-30T04:24:43.839Z,11.29
2016-08-30T04:25:43.824Z,11.29
2016-08-30T04:26:43.835Z,11.29
2016-08-30T04:27:43.814Z,11.25
2016-08-30T04:28:43.823Z,11.22
2016-08-30T04:29:43.804Z,11.32
2016-08-30T04:30:43.796Z,11.49
2016-08-30T04:31:43.804Z,11.49
2016-08-30T04:32:43.806Z,11.54
2016-08-30T04:33:43.794Z,11.72
2016-08-30T04:34:43.776Z,11.82
2016-08-30T04:35:43.769Z,11.91
2016-08-30T04:36:43.779Z,12.02
2016-08-30T04:37:43.760Z,12.13
2016-08-30T04:38:43.777Z,12.31
2016-08-30T04:39:43.746Z,12.41
2016-08-30T04:40:43.733Z,12.6
2016-08-30T04:41:43.747Z,12.72
2016-08-30T04:42:44.525Z,12.89
2016-08-30T04:43:43.745Z,13.04
2016-08-30T04:44:43.713Z,13.29
2016-08-30T04:45:43.728Z,13.48
2016-08-30T04:46:43.708Z,13.64
2016-08-30T04:47:43.713Z,13.87
2016-08-30T04:48:43.695Z,14.2
2016-08-30T04:49:43.694Z,14.36
2016-08-30T04:50:43.693Z,14.55
2016-08-30T04:51:43.683Z,14.91
2016-08-30T04:52:43.690Z,15.09
2016-08-30T04:53:43.688Z,15.36
2016-08-30T04:54:43.674Z,15.5
2016-08-30T04:55:43.705Z,15.78
2016-08-30T04:56:43.672Z,16.08
2016-08-30T04:57:43.669Z,16.33
2016-08-30T04:58:43.665Z,16.64
2016-08-30T04:59:43.678Z,16.91
2016-08-30T05:00:43.659Z,17.01
2016-08-30T05:01:43.671Z,17.4
2016-08-30T05:02:43.651Z,17.58
2016-08-30T05:03:43.658Z,17.9
2016-08-30T05:04:43.668Z,18.18
2016-08-30T05:05:43.653Z,18.45
2016-08-30T05:06:43.649Z,18.69
2016-08-30T05:07:43.652Z,18.9
2016-08-30T05:08:43.641Z,19.19
2016-08-30T05:09:43.660Z,19.46
2016-08-30T05:10:44.587Z,19.74
2016-08-30T05:11:44.098Z,20.03
2016-08-30T05:12:45.391Z,20.23
2016-08-30T05:13:43.647Z,20.41
2016-08-30T05:14:43.900Z,20.69
2016-08-30T05:16:44.560Z,21.1
2016-08-30T05:17:43.642Z,21.21
2016-08-30T05:18:43.900Z,21.49
2016-08-30T05:19:44.066Z,21.68
2016-08-30T05:20:45.521Z,21.83
2016-08-30T05:21:43.802Z,21.96
2016-08-30T05:22:59.076Z,22.03
2016-08-30T05:23:43.704Z,22.1
2016-08-30T05:24:45.177Z,22.2
2016-08-30T05:26:45.315Z,22.47
2016-08-30T05:27:45.993Z,22.7
2016-08-30T05:28:43.692Z,22.94
2016-08-30T05:29:44.298Z,23.02
2016-08-30T05:30:43.682Z,23.23
2016-08-30T05:31:43.683Z,23.38
2016-08-30T05:32:43.692Z,23.5
2016-08-30T05:33:43.700Z,23.55
2016-08-30T05:34:43.722Z,23.83
2016-08-30T05:35:43.707Z,23.9
2016-08-30T05:36:43.732Z,24.08
2016-08-30T05:37:44.412Z,24.13
2016-08-30T05:38:43.738Z,24.25
2016-08-30T05:39:43.714Z,24.28
2016-08-30T05:40:43.715Z,24.18
2016-08-30T05:41:43.747Z,24.16
2016-08-30T05:42:43.760Z,24.18
2016-08-30T05:43:44.442Z,24
2016-08-30T05:44:43.818Z,23.91
2016-08-30T05:45:46.062Z,23.78
2016-08-30T05:46:43.841Z,23.79
2016-08-30T05:47:44.462Z,23.76
2016-08-30T05:48:43.758Z,23.8
2016-08-30T05:49:43.762Z,23.9
2016-08-30T05:50:43.778Z,24.02
2016-08-30T05:51:43.775Z,24.08
2016-08-30T05:52:43.790Z,24.1
2016-08-30T05:53:43.786Z,24.12
2016-08-30T05:57:07.792Z,24.18
2016-08-30T05:58:07.772Z,24.21
2016-08-30T05:59:10.911Z,24.16
2016-08-30T06:00:15.632Z,24.32
2016-08-30T06:01:20.897Z,24.49
2016-08-30T06:02:08.151Z,24.52
2016-08-30T06:03:07.826Z,24.69
2016-08-30T06:04:07.817Z,24.76
2016-08-30T06:05:10.817Z,24.96
2016-08-30T06:06:07.863Z,24.95
2016-08-30T06:08:11.790Z,25.24
2016-08-30T06:09:12.932Z,25.38
2016-08-30T06:10:31.483Z,25.39
2016-08-30T06:11:08.691Z,25.36
2016-08-30T06:12:07.879Z,25.42
2016-08-30T06:13:07.904Z,25.52
2016-08-30T06:14:07.888Z,25.55
2016-08-30T06:15:13.657Z,25.62
2016-08-30T06:16:07.923Z,25.75
2016-08-30T06:17:07.930Z,25.91
2016-08-30T06:19:07.935Z,26.21
2016-08-30T06:20:18.103Z,26.32
2016-08-30T06:21:07.936Z,26.44
2016-08-30T06:22:08.104Z,26.62
2016-08-30T06:23:08.045Z,26.82
2016-08-30T06:24:08.666Z,26.84
2016-08-30T06:25:08.170Z,26.97
2016-08-30T06:26:07.967Z,27.03
2016-08-30T06:27:07.993Z,27.14
2016-08-30T06:28:07.990Z,27.13
2016-08-30T06:29:08.594Z,27.17
2016-08-30T06:30:09.491Z,27.17
2016-08-30T06:31:09.676Z,27.13
2016-08-30T06:32:09.475Z,27.31
2016-08-30T06:33:08.771Z,27.39
2016-08-30T06:34:10.786Z,27.44
2016-08-30T06:35:08.349Z,27.43
2016-08-30T06:36:09.341Z,27.62
2016-08-30T06:37:08.901Z,27.7
2016-08-30T06:38:09.972Z,27.85
2016-08-30T06:39:08.241Z,27.85
2016-08-30T06:40:09.641Z,28
2016-08-30T06:41:23.266Z,28.07
2016-08-30T06:42:23.062Z,28.07
2016-08-30T06:43:09.481Z,28.09
2016-08-30T06:44:10.885Z,28.09
2016-08-30T06:45:08.757Z,28.19
2016-08-30T06:46:08.386Z,28.36
2016-08-30T06:47:09.709Z,28.46
2016-08-30T06:48:08.174Z,28.49
2016-08-30T06:49:08.166Z,28.43
2016-08-30T06:50:23.108Z,28.43
2016-08-30T06:51:08.194Z,28.36
2016-08-30T06:52:08.240Z,28.37
2016-08-30T06:53:08.215Z,28.25
2016-08-30T06:54:23.145Z,28.25
2016-08-30T06:55:08.226Z,28.19
2016-08-30T06:56:08.232Z,28.12
2016-08-30T06:57:08.248Z,28.12
2016-08-30T06:59:08.274Z,27.99
2016-08-30T07:00:08.279Z,28.09
2016-08-30T07:01:08.278Z,28.11
2016-08-30T07:02:08.295Z,28.12
2016-08-30T07:03:08.314Z,28.12
2016-08-30T07:04:08.311Z,28.15
2016-08-30T07:05:08.337Z,28.15
2016-08-30T07:06:08.333Z,28.21
2016-08-30T07:07:08.355Z,28.24
2016-08-30T07:08:08.362Z,28.36
2016-08-30T07:09:08.374Z,28.34
2016-08-30T07:10:08.418Z,28.37
2016-08-30T07:11:23.301Z,28.4
2016-08-30T07:12:23.310Z,28.34
2016-08-30T07:13:08.417Z,28.19
2016-08-30T07:14:08.421Z,28.15
2016-08-30T07:15:08.612Z,28.06
2016-08-30T07:16:08.438Z,27.94
2016-08-30T07:17:08.453Z,27.94
2016-08-30T07:18:08.449Z,28
2016-08-30T07:19:08.464Z,27.92
2016-08-30T07:20:16.875Z,27.87
2016-08-30T07:21:08.927Z,27.67
2016-08-30T07:22:08.499Z,27.77
2016-08-30T07:23:08.502Z,27.77
2016-08-30T07:24:08.535Z,27.72
2016-08-30T07:25:13.136Z,27.7
2016-08-30T07:26:24.600Z,27.72
2016-08-30T07:27:23.461Z,27.85
2016-08-30T07:28:08.559Z,28.07
2016-08-30T07:29:08.562Z,28.14
2016-08-30T07:30:08.573Z,28.21
2016-08-30T07:31:08.612Z,28.17
2016-08-30T07:32:08.601Z,28.3
2016-08-30T07:33:08.629Z,28.22
2016-08-30T07:34:23.540Z,28.21
2016-08-30T07:35:11.592Z,28.03
2016-08-30T07:36:08.654Z,28
2016-08-30T07:37:08.656Z,28.12
2016-08-30T07:38:08.662Z,27.97
2016-08-30T07:39:23.588Z,27.88
2016-08-30T07:40:08.697Z,27.88
2016-08-30T07:41:08.679Z,27.7
2016-08-30T07:42:08.701Z,27.62
2016-08-30T07:43:08.815Z,27.34
2016-08-30T07:44:08.716Z,27.24
2016-08-30T07:45:08.837Z,27.04
2016-08-30T07:46:08.732Z,26.62
2016-08-30T07:47:24.471Z,26.39
2016-08-30T07:48:09.058Z,26.29
2016-08-30T07:49:08.766Z,26.32
2016-08-30T07:50:09.118Z,26.29
2016-08-30T07:52:11.943Z,26.01
2016-08-30T07:53:10.152Z,25.77
2016-08-30T07:54:11.542Z,25.7
2016-08-30T07:55:08.819Z,25.61
2016-08-30T07:56:10.792Z,25.45
2016-08-30T07:58:24.062Z,24.8
2016-08-30T07:59:09.051Z,24.53
2016-08-30T08:00:13.436Z,24.21
2016-08-30T08:02:09.332Z,23.7
2016-08-30T08:03:11.263Z,23.4
2016-08-30T08:04:24.028Z,23
2016-08-30T08:05:08.914Z,22.76
2016-08-30T08:06:23.848Z,22.67
2016-08-30T08:07:23.826Z,22.62
2016-08-30T08:08:23.839Z,22.64
2016-08-30T08:09:08.920Z,22.72
2016-08-30T08:10:08.943Z,22.6
2016-08-30T08:11:08.945Z,22.52
2016-08-30T08:12:08.965Z,22.6
2016-08-30T08:13:08.962Z,22.8
2016-08-30T08:14:08.965Z,22.94
2016-08-30T08:15:08.989Z,22.77
2016-08-30T08:16:09.663Z,22.67
2016-08-30T08:17:08.992Z,22.77
2016-08-30T08:18:08.998Z,22.9
2016-08-30T08:19:09.012Z,23
2016-08-30T08:20:09.031Z,23.1
2016-08-30T08:21:09.026Z,23.28
2016-08-30T08:22:09.052Z,23.23
2016-08-30T08:23:09.057Z,23.27
2016-08-30T08:24:09.067Z,23.38
2016-08-30T08:25:09.070Z,23.32
2016-08-30T08:26:23.992Z,23.04
2016-08-30T08:27:09.097Z,23.01
2016-08-30T08:28:24.009Z,22.67
2016-08-30T08:29:09.115Z,22.45
2016-08-30T08:30:09.111Z,22.22
2016-08-30T08:31:24.048Z,22.25
2016-08-30T08:32:24.050Z,22.28
2016-08-30T08:33:09.137Z,22.36
2016-08-30T08:34:09.135Z,22.4
2016-08-30T08:35:09.140Z,22.35
2016-08-30T08:36:09.137Z,22.06
2016-08-30T08:37:09.162Z,21.99
2016-08-30T08:38:09.149Z,22
2016-08-30T08:40:24.097Z,21.92
2016-08-30T08:42:06.945Z,22.07
2016-08-30T08:42:19.470Z,22.07
2016-08-30T08:43:17.250Z,22.03
2016-08-30T08:44:18.715Z,22.1
2016-08-30T08:45:35.658Z,21.77
2016-08-30T08:46:17.769Z,21.79
2016-08-30T08:47:16.956Z,21.61
2016-08-30T08:50:31.941Z,21.16
2016-08-30T08:51:17.002Z,21.25
2016-08-30T08:52:16.984Z,21.27
2016-08-30T08:53:16.944Z,21.19
2016-08-30T08:54:16.947Z,21.13
2016-08-30T08:57:16.941Z,21.04
2016-08-30T08:58:16.989Z,20.98
2016-08-30T08:59:31.871Z,20.88
2016-08-30T09:00:18.087Z,20.99
2016-08-30T09:01:31.870Z,21.09
2016-08-30T09:02:16.953Z,21.21
2016-08-30T09:03:16.957Z,21.42
2016-08-30T09:04:16.962Z,21.31
2016-08-30T09:05:18.503Z,21.29
2016-08-30T09:06:17.887Z,21.32
2016-08-30T09:07:32.041Z,21.46
2016-08-30T09:08:17.020Z,21.64
2016-08-30T09:09:17.020Z,21.77
2016-08-30T09:10:20.180Z,21.86
2016-08-30T09:11:17.613Z,21.91
2016-08-30T09:12:19.195Z,21.91
2016-08-30T09:13:32.862Z,21.86
2016-08-30T09:14:32.755Z,21.82
2016-08-30T09:16:16.971Z,21.71
2016-08-30T09:17:17.635Z,21.67
2016-08-30T09:18:17.480Z,21.72
2016-08-30T09:19:33.421Z,21.65
2016-08-30T09:20:18.557Z,21.62
2016-08-30T09:21:19.093Z,21.72
2016-08-30T09:22:18.905Z,21.77
2016-08-30T09:23:17.929Z,21.84
2016-08-30T09:24:17.008Z,21.99
2016-08-30T09:25:17.007Z,22.03
2016-08-30T09:26:16.995Z,22.22
2016-08-30T09:27:17.060Z,22.17
2016-08-30T09:28:16.993Z,22.3
2016-08-30T09:29:17.002Z,22.18
2016-08-30T09:30:31.910Z,22.06
2016-08-30T09:31:17.004Z,21.99
2016-08-30T09:32:17.041Z,21.98
2016-08-30T09:33:16.999Z,21.74
2016-08-30T09:34:17.017Z,21.82
2016-08-30T09:35:17.008Z,21.61
2016-08-30T09:36:17.019Z,21.64
2016-08-30T09:37:17.021Z,21.61
2016-08-30T09:38:17.025Z,21.59
2016-08-30T09:39:17.015Z,21.5
2016-08-30T09:41:17.006Z,21.43
2016-08-30T09:42:17.011Z,21.49
2016-08-30T09:44:17.050Z,21.62
2016-08-30T09:45:17.017Z,21.69
2016-08-30T09:46:17.029Z,21.69
2016-08-30T09:47:17.031Z,21.84
2016-08-30T09:48:17.051Z,21.9
2016-08-30T09:49:31.941Z,22.02
2016-08-30T09:50:17.027Z,22.22
2016-08-30T09:51:17.038Z,22.28
2016-08-30T09:53:17.043Z,22.58
2016-08-30T09:54:17.046Z,22.75
2016-08-30T09:55:17.190Z,22.94
2016-08-30T09:56:17.077Z,22.9
2016-08-30T09:57:46.874Z,23
2016-08-30T09:58:17.041Z,22.98
2016-08-30T09:59:17.052Z,22.91
2016-08-30T10:00:31.973Z,23.05
2016-08-30T10:01:17.062Z,23.22
2016-08-30T10:02:17.045Z,23.25
2016-08-30T10:03:17.079Z,23.39
2016-08-30T10:04:17.052Z,23.51
2016-08-30T10:05:17.056Z,23.51
2016-08-30T10:06:17.060Z,23.42
2016-08-30T10:07:17.077Z,23.57
2016-08-30T10:08:17.076Z,23.69
2016-08-30T10:09:17.072Z,23.9
2016-08-30T10:10:17.078Z,24.09
2016-08-30T10:11:17.070Z,24.39
2016-08-30T10:12:17.088Z,24.47
2016-08-30T10:13:17.075Z,24.65
2016-08-30T10:14:17.083Z,24.68
2016-08-30T10:15:17.082Z,24.8
2016-08-30T10:16:32.005Z,24.8
2016-08-30T10:17:17.112Z,24.93
2016-08-30T10:19:17.101Z,24.88
2016-08-30T10:20:17.098Z,24.65
2016-08-30T10:21:32.028Z,24.42
2016-08-30T10:22:17.112Z,24.34
2016-08-30T10:23:32.027Z,24.52
2016-08-30T10:24:17.829Z,24.58
2016-08-30T10:25:33.000Z,24.76
2016-08-30T10:26:17.436Z,24.84
2016-08-30T10:29:17.528Z,24.77
2016-08-30T10:30:18.144Z,24.77
2016-08-30T10:31:17.144Z,24.68
2016-08-30T10:32:18.613Z,24.65
2016-08-30T10:33:17.916Z,24.55
2016-08-30T10:34:17.488Z,24.4
2016-08-30T10:35:17.992Z,24.52
2016-08-30T10:36:17.423Z,24.49
2016-08-30T10:37:20.315Z,24.55
2016-08-30T10:38:18.713Z,24.5
2016-08-30T10:39:17.522Z,24.42
2016-08-30T10:40:18.296Z,24.21
2016-08-30T10:41:18.448Z,24.1
2016-08-30T10:42:17.314Z,24.05
2016-08-30T10:43:17.823Z,24.12
2016-08-30T10:44:32.505Z,24.13
2016-08-30T10:45:17.398Z,24.13
2016-08-30T10:46:17.208Z,24.12
2016-08-30T10:47:32.138Z,24.06
2016-08-30T10:48:17.253Z,24.03
2016-08-30T10:49:17.231Z,24.13
2016-08-30T10:50:17.237Z,24.16
2016-08-30T10:51:17.258Z,24.18
2016-08-30T10:52:17.943Z,24.27
2016-08-30T10:53:17.378Z,24.5
2016-08-30T10:54:17.248Z,24.5
2016-08-30T10:55:17.263Z,24.58
2016-08-30T10:56:17.256Z,24.68
2016-08-30T10:57:17.274Z,24.83
2016-08-30T10:58:17.272Z,24.95
2016-08-30T10:59:17.267Z,24.9
2016-08-30T11:00:17.277Z,24.71
2016-08-30T11:01:17.278Z,24.52
2016-08-30T11:02:17.298Z,24.3
2016-08-30T11:03:17.294Z,24.2
2016-08-30T11:04:32.223Z,24.28
2016-08-30T11:05:17.294Z,24.35
2016-08-30T11:06:17.299Z,24.49
2016-08-30T11:07:17.302Z,24.55
2016-08-30T11:08:17.314Z,24.53
2016-08-30T11:09:17.306Z,24.53
2016-08-30T11:11:17.348Z,24.65
2016-08-30T11:13:32.242Z,24.83
2016-08-30T11:14:17.330Z,24.85
2016-08-30T11:15:17.336Z,24.93
2016-08-30T11:16:17.365Z,24.95
2016-08-30T11:17:17.343Z,24.9
2016-08-30T11:18:17.348Z,24.78
2016-08-30T11:19:17.361Z,24.81
2016-08-30T11:20:17.369Z,24.76
2016-08-30T11:21:17.364Z,24.83
2016-08-30T11:22:17.359Z,24.83
2016-08-30T11:23:17.365Z,24.93
2016-08-30T11:24:17.377Z,25.09
2016-08-30T11:25:17.389Z,25.13
2016-08-30T11:27:25.792Z,25.15
2016-08-30T11:28:25.790Z,25.25
2016-08-30T11:29:25.810Z,25.36
2016-08-30T11:30:25.809Z,25.33
2016-08-30T11:31:25.806Z,25.15
2016-08-30T11:32:25.811Z,25.13
2016-08-30T11:34:25.815Z,25.15
2016-08-30T11:35:40.747Z,25.14
2016-08-30T11:36:25.823Z,25.2
2016-08-30T11:37:25.861Z,25.14
2016-08-30T11:38:25.837Z,25.09
2016-08-30T11:39:25.859Z,25.05
2016-08-30T11:40:25.849Z,24.87
2016-08-30T11:41:28.023Z,24.91
2016-08-30T11:42:25.930Z,24.85
2016-08-30T11:43:26.110Z,24.91
2016-08-30T11:44:25.874Z,24.96
2016-08-30T11:45:25.898Z,25
2016-08-30T11:47:27.079Z,24.99
2016-08-30T11:48:25.880Z,25.02
2016-08-30T11:49:26.104Z,25.13
2016-08-30T11:50:28.281Z,25.18
2016-08-30T11:51:26.670Z,25.33
2016-08-30T11:52:25.911Z,25.33
2016-08-30T11:53:26.587Z,25.35
2016-08-30T11:54:26.455Z,25.3
2016-08-30T11:55:27.932Z,25.3
2016-08-30T11:56:26.735Z,25.15
2016-08-30T11:57:28.906Z,24.91
2016-08-30T11:58:26.040Z,24.78
2016-08-30T11:59:26.295Z,24.68
2016-08-30T12:00:26.041Z,24.67
2016-08-30T12:01:25.940Z,24.55
2016-08-30T12:02:25.940Z,24.37
2016-08-30T12:03:25.948Z,24.31
2016-08-30T12:04:25.949Z,24.1
2016-08-30T12:05:25.953Z,23.95
2016-08-30T12:06:25.951Z,23.72
2016-08-30T12:07:25.967Z,23.6
2016-08-30T12:08:25.972Z,23.43
2016-08-30T12:09:25.978Z,23.22
2016-08-30T12:10:25.972Z,23.16
2016-08-30T12:11:25.975Z,23.1
2016-08-30T12:12:25.968Z,22.92
2016-08-30T12:13:25.975Z,22.97
2016-08-30T12:14:25.985Z,22.98
2016-08-30T12:15:26.016Z,23.07
2016-08-30T12:16:25.991Z,23.05
2016-08-30T12:17:26.006Z,23.1
2016-08-30T12:18:25.995Z,23.17
2016-08-30T12:19:26.007Z,23.19
2016-08-30T12:20:26.002Z,23.25
2016-08-30T12:21:25.998Z,23.17
2016-08-30T12:22:26.008Z,23.27
2016-08-30T12:23:26.022Z,23.17
2016-08-30T12:24:26.016Z,23.05
2016-08-30T12:25:26.010Z,22.95
2016-08-30T12:26:26.016Z,22.95
2016-08-30T12:27:26.016Z,22.86
2016-08-30T12:28:26.024Z,22.8
2016-08-30T12:29:26.018Z,22.72
2016-08-30T12:30:26.187Z,22.77
2016-08-30T12:31:26.021Z,22.7
2016-08-30T12:32:26.040Z,22.76
2016-08-30T12:33:26.039Z,22.76
2016-08-30T12:34:26.050Z,22.8
2016-08-30T12:35:26.439Z,22.86
2016-08-30T12:36:26.047Z,22.83
2016-08-30T12:37:26.058Z,22.95
2016-08-30T12:38:56.027Z,23.1
2016-08-30T12:39:26.050Z,23.09
2016-08-30T12:40:26.044Z,23.05
2016-08-30T12:41:26.050Z,22.94
2016-08-30T12:42:26.048Z,22.9
2016-08-30T12:43:26.058Z,22.85
2016-08-30T12:44:26.078Z,22.91
2016-08-30T12:45:26.063Z,22.94
2016-08-30T12:46:26.070Z,23.05
2016-08-30T12:47:26.085Z,23.04
2016-08-30T12:48:26.092Z,23.05
2016-08-30T12:49:26.076Z,23.12
2016-08-30T12:50:26.076Z,23.22
2016-08-30T12:51:26.769Z,23.25
2016-08-30T12:52:26.090Z,23.19
2016-08-30T12:53:26.085Z,23.13
2016-08-30T12:54:26.087Z,23.15
2016-08-30T12:55:26.097Z,23.25
2016-08-30T12:56:26.086Z,23.28
2016-08-30T12:57:26.108Z,23.46
2016-08-30T12:58:26.094Z,23.48
2016-08-30T12:59:26.939Z,23.57
2016-08-30T13:00:26.210Z,23.5
2016-08-30T13:01:27.048Z,23.57
2016-08-30T13:02:26.205Z,23.47
2016-08-30T13:03:27.112Z,23.5
2016-08-30T13:05:26.379Z,23.38
2016-08-30T13:06:27.602Z,23.39
2016-08-30T13:07:26.109Z,23.47
2016-08-30T13:08:27.218Z,23.47
2016-08-30T13:09:27.326Z,23.46
2016-08-30T13:10:27.058Z,23.57
2016-08-30T13:11:26.145Z,23.58
2016-08-30T13:12:26.124Z,23.66
2016-08-30T13:14:27.664Z,23.79
2016-08-30T13:15:26.930Z,23.85
2016-08-30T13:16:26.142Z,23.85
2016-08-30T13:17:26.140Z,23.95
2016-08-30T13:18:27.533Z,23.97
2016-08-30T13:19:26.133Z,23.97
2016-08-30T13:20:26.162Z,23.9
2016-08-30T13:21:26.152Z,23.79
2016-08-30T13:22:26.162Z,23.79
2016-08-30T13:23:26.154Z,23.83
2016-08-30T13:24:26.171Z,23.85
2016-08-30T13:25:26.161Z,23.94
2016-08-30T13:26:26.161Z,24.06
2016-08-30T13:27:26.181Z,24.13
2016-08-30T13:28:26.168Z,24.2
2016-08-30T13:29:26.168Z,24.21
2016-08-30T13:30:26.180Z,24.3
2016-08-30T13:31:26.171Z,24.32
2016-08-30T13:32:26.207Z,24.37
2016-08-30T13:33:26.173Z,24.45